createdAt,value
2022-09-21T00:01:16.891Z,102108.38
2022-09-21T00:03:44.674Z,102110.00
2022-09-21T00:06:14.947Z,102107.56
2022-09-21T00:08:42.175Z,102104.09
2022-09-21T00:11:12.495Z,102105.63
2022-09-21T00:13:38.940Z,102105.25
2022-09-21T00:16:07.212Z,102105.72
2022-09-21T00:18:34.137Z,102108.00
2022-09-21T00:21:00.580Z,102095.19
2022-09-21T00:23:27.272Z,102109.78
2022-09-21T00:26:04.399Z,102111.25
2022-09-21T00:28:30.831Z,102114.38
2022-09-21T00:31:03.515Z,102108.59
2022-09-21T00:33:30.055Z,102111.50
2022-09-21T00:36:04.780Z,102119.78
2022-09-21T00:38:31.825Z,102115.28
2022-09-21T00:40:58.770Z,102111.50
2022-09-21T00:43:25.608Z,102114.25
2022-09-21T00:46:15.783Z,102116.94
2022-09-21T00:48:42.851Z,102108.06
2022-09-21T00:51:09.990Z,102115.97
2022-09-21T00:53:38.602Z,102120.94
2022-09-21T00:56:06.798Z,102123.22
2022-09-21T00:58:44.688Z,102119.88
2022-09-21T01:01:12.832Z,102130.47
2022-09-21T01:03:40.022Z,102127.97
2022-09-21T01:06:06.431Z,102130.47
2022-09-21T01:08:35.016Z,102131.53
2022-09-21T01:11:20.343Z,102123.25
2022-09-21T01:13:58.768Z,102128.03
2022-09-21T01:16:47.566Z,102129.88
2022-09-21T01:19:52.152Z,102137.00
2022-09-21T01:22:24.769Z,102141.53
2022-09-21T01:25:14.793Z,102134.72
2022-09-21T01:27:57.238Z,102142.66
2022-09-21T01:30:24.924Z,102148.06
2022-09-21T01:32:59.163Z,102145.34
2022-09-21T01:35:45.487Z,102142.44
2022-09-21T01:38:19.412Z,102144.50
2022-09-21T01:40:58.584Z,102145.13
2022-09-21T01:43:29.597Z,102135.38
2022-09-21T01:46:02.745Z,102139.56
2022-09-21T01:48:35.114Z,102142.88
2022-09-21T01:51:06.399Z,102131.84
2022-09-21T01:53:44.796Z,102135.78
2022-09-21T01:56:19.176Z,102137.94
2022-09-21T01:58:52.385Z,102139.59
2022-09-21T02:01:23.721Z,102140.81
2022-09-21T02:03:58.752Z,102144.53
2022-09-21T02:06:28.136Z,102142.00
2022-09-21T02:08:55.495Z,102142.00
2022-09-21T02:11:22.255Z,102148.09
2022-09-21T02:13:52.236Z,102141.81
2022-09-21T02:16:33.862Z,102139.78
2022-09-21T02:19:11.254Z,102144.78
2022-09-21T02:21:48.560Z,102146.25
2022-09-21T02:24:34.983Z,102141.09
2022-09-21T02:27:26.518Z,102146.91
2022-09-21T02:30:16.905Z,102151.53
2022-09-21T02:33:08.824Z,102143.22
2022-09-21T02:36:05.481Z,102152.00
2022-09-21T02:38:37.862Z,102144.13
2022-09-21T02:41:26.821Z,102147.63
2022-09-21T02:44:06.875Z,102146.19
2022-09-21T02:46:43.611Z,102149.94
2022-09-21T02:49:19.139Z,102144.56
2022-09-21T02:51:52.513Z,102148.91
2022-09-21T02:54:25.112Z,102145.59
2022-09-21T02:56:53.998Z,102148.91
2022-09-21T02:59:23.573Z,102149.13
2022-09-21T03:01:51.336Z,102154.75
2022-09-21T03:04:18.189Z,102148.72
2022-09-21T03:06:44.796Z,102153.91
2022-09-21T03:09:11.228Z,102147.91
2022-09-21T03:11:37.808Z,102146.63
2022-09-21T03:14:08.539Z,102153.91
2022-09-21T03:16:36.241Z,102147.44
2022-09-21T03:19:02.762Z,102147.06
2022-09-21T03:21:29.717Z,102148.94
2022-09-21T03:23:56.505Z,102154.94
2022-09-21T03:26:22.966Z,102157.22
2022-09-21T03:28:50.600Z,102152.44
2022-09-21T03:31:17.477Z,102163.44
2022-09-21T03:33:44.650Z,102159.50
2022-09-21T03:36:11.518Z,102159.31
2022-09-21T03:38:38.659Z,102163.44
2022-09-21T03:41:05.780Z,102169.25
2022-09-21T03:43:32.509Z,102166.78
2022-09-21T03:45:59.100Z,102166.34
2022-09-21T03:48:25.988Z,102162.19
2022-09-21T03:50:52.427Z,102171.75
2022-09-21T03:53:18.973Z,102164.91
2022-09-21T03:55:45.447Z,102164.09
2022-09-21T03:58:12.016Z,102166.56
2022-09-21T04:00:39.482Z,102162.63
2022-09-21T04:03:06.458Z,102163.44
2022-09-21T04:05:32.865Z,102162.63
2022-09-21T04:08:02.003Z,102165.75
2022-09-21T04:10:29.229Z,102162.84
2022-09-21T04:13:02.636Z,102163.03
2022-09-21T04:15:29.760Z,102165.53
2022-09-21T04:17:56.609Z,102158.47
2022-09-21T04:20:23.417Z,102161.59
2022-09-21T04:22:51.449Z,102168.44
2022-09-21T04:25:21.322Z,102160.97
2022-09-21T04:28:13.681Z,102177.81
2022-09-21T04:30:40.286Z,102174.47
2022-09-21T04:33:07.154Z,102174.25
2022-09-21T04:35:33.639Z,102177.81
2022-09-21T04:38:00.233Z,102173.03
2022-09-21T04:40:28.196Z,102179.66
2022-09-21T04:42:55.986Z,102180.50
2022-09-21T04:45:23.516Z,102173.22
2022-09-21T04:47:50.016Z,102176.13
2022-09-21T04:50:16.887Z,102161.63
2022-09-21T04:52:43.645Z,102179.84
2022-09-21T04:55:10.118Z,102178.41
2022-09-21T04:57:36.631Z,102184.63
2022-09-21T05:00:08.141Z,102173.84
2022-09-21T05:02:34.615Z,102184.84
2022-09-21T05:05:01.025Z,102194.19
2022-09-21T05:07:28.272Z,102194.19
2022-09-21T05:10:05.587Z,102198.53
2022-09-21T05:12:33.665Z,102201.63
2022-09-21T05:15:00.274Z,102206.22
2022-09-21T05:17:26.796Z,102208.09
2022-09-21T05:19:53.471Z,102204.75
2022-09-21T05:22:21.293Z,102214.28
2022-09-21T05:24:47.866Z,102211.56
2022-09-21T05:27:14.834Z,102213.22
2022-09-21T05:29:41.848Z,102216.78
2022-09-21T05:32:45.324Z,102214.69
2022-09-21T05:35:42.108Z,102212.19
2022-09-21T05:38:19.456Z,102215.75
2022-09-21T05:40:50.372Z,102218.25
2022-09-21T05:43:17.775Z,102219.88
2022-09-21T05:45:48.116Z,102216.16
2022-09-21T05:48:42.036Z,102224.03
2022-09-21T05:51:34.457Z,102222.38
2022-09-21T05:54:28.651Z,102215.53
2022-09-21T05:57:11.124Z,102223.63
2022-09-21T05:59:55.562Z,102217.81
2022-09-21T06:02:26.039Z,102222.78
2022-09-21T06:04:56.560Z,102223.66
2022-09-21T06:07:23.110Z,102220.13
2022-09-21T06:09:50.020Z,102224.91
2022-09-21T06:12:16.500Z,102234.25
2022-09-21T06:14:43.009Z,102234.03
2022-09-21T06:17:09.495Z,102246.09
2022-09-21T06:19:35.966Z,102239.22
2022-09-21T06:22:02.504Z,102245.69
2022-09-21T06:24:29.460Z,102243.00
2022-09-21T06:26:56.800Z,102240.28
2022-09-21T06:29:24.682Z,102242.38
2022-09-21T06:31:51.521Z,102239.69
2022-09-21T06:34:18.735Z,102244.22
2022-09-21T06:36:46.234Z,102246.97
2022-09-21T06:39:13.037Z,102228.25
2022-09-21T06:41:39.469Z,102237.81
2022-09-21T06:44:09.800Z,102239.91
2022-09-21T06:46:36.276Z,102233.84
2022-09-21T06:49:05.058Z,102245.69
2022-09-21T06:51:31.552Z,102246.28
2022-09-21T06:53:58.992Z,102243.56
2022-09-21T06:56:26.122Z,102251.47
2022-09-21T06:58:52.734Z,102247.28
2022-09-21T07:01:19.822Z,102257.03
2022-09-21T07:03:51.029Z,102259.09
2022-09-21T07:06:18.580Z,102244.28
2022-09-21T07:11:32.563Z,102244.44
2022-09-21T07:13:59.744Z,102251.94
2022-09-21T07:16:26.375Z,102255.84
2022-09-21T07:18:53.160Z,102259.13
2022-09-21T07:21:19.677Z,102252.22
2022-09-21T07:23:46.289Z,102262.38
2022-09-21T07:26:13.928Z,102267.53
2022-09-21T07:28:40.807Z,102265.81
2022-09-21T07:31:15.204Z,102264.09
2022-09-21T07:33:42.871Z,102263.41
2022-09-21T07:36:11.212Z,102269.16
2022-09-21T07:38:39.722Z,102269.03
2022-09-21T07:41:07.204Z,102269.66
2022-09-21T07:43:33.674Z,102267.47
2022-09-21T07:46:02.127Z,102262.22
2022-09-21T07:48:29.124Z,102261.50
2022-09-21T07:51:00.841Z,102263.31
2022-09-21T07:53:28.854Z,102263.41
2022-09-21T07:56:02.813Z,102264.72
2022-09-21T07:58:47.831Z,102268.66
2022-09-21T08:01:14.835Z,102263.16
2022-09-21T08:03:41.496Z,102263.75
2022-09-21T08:06:09.283Z,102272.41
2022-09-21T08:08:36.266Z,102267.28
2022-09-21T08:11:04.764Z,102267.44
2022-09-21T08:13:31.974Z,102270.81
2022-09-21T08:16:00.416Z,102264.38
2022-09-21T08:18:27.814Z,102268.97
2022-09-21T08:21:00.841Z,102272.00
2022-09-21T08:23:29.060Z,102281.16
2022-09-21T08:26:05.451Z,102275.63
2022-09-21T08:28:32.244Z,102283.78
2022-09-21T08:31:03.485Z,102271.72
2022-09-21T08:33:30.155Z,102274.72
2022-09-21T08:35:59.660Z,102277.34
2022-09-21T08:38:27.221Z,102277.38
2022-09-21T08:40:54.260Z,102278.78
2022-09-21T08:43:36.801Z,102274.31
2022-09-21T08:46:11.382Z,102274.91
2022-09-21T08:48:46.216Z,102274.31
2022-09-21T08:51:21.933Z,102277.75
2022-09-21T08:53:53.681Z,102267.47
2022-09-21T08:56:22.034Z,102264.97
2022-09-21T08:58:49.040Z,102270.78
2022-09-21T09:01:30.825Z,102267.19
2022-09-21T09:04:03.407Z,102272.41
2022-09-21T09:06:49.590Z,102262.47
2022-09-21T09:09:42.023Z,102272.44
2022-09-21T09:12:26.465Z,102265.22
2022-09-21T09:15:12.508Z,102265.66
2022-09-21T09:17:57.666Z,102267.78
2022-09-21T09:20:43.567Z,102274.06
2022-09-21T09:23:19.551Z,102282.47
2022-09-21T09:25:50.041Z,102282.16
2022-09-21T09:28:33.237Z,102280.50
2022-09-21T09:31:21.751Z,102284.13
2022-09-21T09:33:58.957Z,102280.78
2022-09-21T09:36:56.635Z,102278.50
2022-09-21T09:39:19.975Z,102276.16
2022-09-21T09:41:56.783Z,102284.72
2022-09-21T09:44:48.071Z,102281.50
2022-09-21T09:47:33.151Z,102283.56
2022-09-21T09:50:20.491Z,102282.00
2022-09-21T09:52:49.251Z,102280.66
2022-09-21T09:55:24.325Z,102275.00
2022-09-21T09:57:51.910Z,102282.19
2022-09-21T10:00:20.729Z,102274.75
2022-09-21T10:02:59.575Z,102276.22
2022-09-21T10:05:28.868Z,102278.31
2022-09-21T10:07:57.885Z,102267.47
2022-09-21T10:10:40.326Z,102268.13
2022-09-21T10:13:27.052Z,102270.50
2022-09-21T10:16:13.995Z,102272.19
2022-09-21T10:18:48.012Z,102268.72
2022-09-21T10:21:24.831Z,102268.44
2022-09-21T10:23:57.146Z,102272.91
2022-09-21T10:26:23.814Z,102274.56
2022-09-21T10:28:58.154Z,102279.25
2022-09-21T10:31:27.252Z,102271.00
2022-09-21T10:34:16.067Z,102275.25
2022-09-21T10:36:54.692Z,102275.09
2022-09-21T10:39:30.803Z,102268.03
2022-09-21T10:42:07.685Z,102263.16
2022-09-21T10:44:45.600Z,102270.06
2022-09-21T10:47:31.055Z,102262.69
2022-09-21T10:50:00.442Z,102262.19
2022-09-21T10:52:38.563Z,102258.69
2022-09-21T10:55:07.098Z,102257.56
2022-09-21T10:57:34.531Z,102262.00
2022-09-21T11:00:26.219Z,102260.06
2022-09-21T11:02:55.665Z,102257.59
2022-09-21T11:05:33.335Z,102259.03
2022-09-21T11:08:16.457Z,102251.09
2022-09-21T11:11:02.651Z,102251.16
2022-09-21T11:14:12.252Z,102253.88
2022-09-21T11:16:53.104Z,102242.34
2022-09-21T11:19:47.626Z,102251.69
2022-09-21T11:22:27.635Z,102251.44
2022-09-21T11:25:28.619Z,102250.38
2022-09-21T11:28:04.360Z,102251.44
2022-09-21T11:30:41.708Z,102250.91
2022-09-21T11:33:33.025Z,102250.09
2022-09-21T11:36:13.522Z,102244.59
2022-09-21T11:38:56.017Z,102250.63
2022-09-21T11:42:00.995Z,102237.47
2022-09-21T11:44:39.644Z,102235.53
2022-09-21T11:47:12.294Z,102238.00
2022-09-21T11:50:07.665Z,102231.94
2022-09-21T11:53:05.719Z,102228.63
2022-09-21T11:55:53.774Z,102234.13
2022-09-21T11:58:45.909Z,102236.03
2022-09-21T12:01:34.600Z,102235.22
2022-09-21T12:04:19.776Z,102225.03
2022-09-21T12:06:53.347Z,102228.59
2022-09-21T12:09:32.189Z,102220.63
2022-09-21T12:12:21.790Z,102229.72
2022-09-21T12:15:02.182Z,102217.06
2022-09-21T12:17:44.113Z,102213.47
2022-09-21T12:20:19.563Z,102213.16
2022-09-21T12:22:49.747Z,102212.53
2022-09-21T12:25:23.735Z,102213.34
2022-09-21T12:27:55.201Z,102214.47
2022-09-21T12:30:24.026Z,102211.25
2022-09-21T12:33:07.082Z,102217.84
2022-09-21T12:35:56.954Z,102206.78
2022-09-21T12:38:29.176Z,102200.69
2022-09-21T12:41:36.076Z,102195.41
2022-09-21T12:44:18.434Z,102209.88
2022-09-21T12:47:09.112Z,102203.94
2022-09-21T12:49:45.283Z,102196.41
2022-09-21T12:52:21.620Z,102196.91
2022-09-21T12:54:56.992Z,102197.25
2022-09-21T12:58:14.225Z,102186.88
2022-09-21T13:01:01.097Z,102191.09
2022-09-21T13:03:56.232Z,102185.09
2022-09-21T13:06:41.050Z,102190.84
2022-09-21T13:09:12.780Z,102186.44
2022-09-21T13:11:59.727Z,102182.03
2022-09-21T13:14:36.232Z,102183.34
2022-09-21T13:17:05.852Z,102182.53
2022-09-21T13:19:35.304Z,102173.78
2022-09-21T13:22:19.766Z,102179.22
2022-09-21T13:25:03.504Z,102179.81
2022-09-21T13:28:09.099Z,102174.09
2022-09-21T13:30:45.513Z,102175.72
2022-09-21T13:33:18.111Z,102174.91
2022-09-21T13:35:50.783Z,102177.06
2022-09-21T13:38:40.902Z,102169.34
2022-09-21T13:41:13.112Z,102164.88
2022-09-21T13:43:58.477Z,102159.66
2022-09-21T13:46:36.648Z,102164.00
2022-09-21T13:49:10.620Z,102167.50
2022-09-21T13:52:07.350Z,102158.94
2022-09-21T13:54:48.628Z,102161.16
2022-09-21T13:57:27.316Z,102160.59
2022-09-21T14:00:17.050Z,102165.16
2022-09-21T14:02:54.894Z,102161.97
2022-09-21T14:05:33.935Z,102146.56
2022-09-21T14:08:05.178Z,102146.84
2022-09-21T14:10:36.098Z,102152.84
2022-09-21T14:13:07.356Z,102153.50
2022-09-21T14:15:37.671Z,102145.13
2022-09-21T14:18:19.037Z,102146.34
2022-09-21T14:21:11.589Z,102146.41
2022-09-21T14:23:39.254Z,102138.72
2022-09-21T14:26:36.749Z,102141.47
2022-09-21T14:29:44.865Z,102138.72
2022-09-21T14:32:23.302Z,102142.25
2022-09-21T14:34:56.240Z,102137.22
2022-09-21T14:37:38.116Z,102131.66
2022-09-21T14:40:17.943Z,102130.63
2022-09-21T14:42:46.616Z,102123.72
2022-09-21T14:45:24.961Z,102136.72
2022-09-21T14:47:52.068Z,102128.81
2022-09-21T14:50:30.713Z,102123.03
2022-09-21T14:53:32.427Z,102120.47
2022-09-21T14:56:10.103Z,102121.56
2022-09-21T14:58:58.224Z,102123.75
2022-09-21T15:01:37.819Z,102114.13
2022-09-21T15:04:29.343Z,102117.97
2022-09-21T15:07:54.701Z,102114.66
2022-09-21T15:10:45.674Z,102109.28
2022-09-21T15:13:36.192Z,102112.69
2022-09-21T15:16:23.751Z,102102.56
2022-09-21T15:18:59.990Z,102111.34
2022-09-21T15:21:29.224Z,102107.47
2022-09-21T15:23:57.064Z,102114.84
2022-09-21T15:26:29.065Z,102106.34
2022-09-21T15:29:12.539Z,102109.94
2022-09-21T15:31:41.444Z,102103.59
2022-09-21T15:34:10.777Z,102103.06
2022-09-21T15:36:40.356Z,102101.66
2022-09-21T15:39:07.422Z,102101.69
2022-09-21T15:41:45.883Z,102105.28
2022-09-21T15:44:16.823Z,102107.19
2022-09-21T15:46:48.267Z,102108.59
2022-09-21T15:49:20.722Z,102099.53
2022-09-21T15:51:53.536Z,102097.91
2022-09-21T15:54:23.079Z,102102.00
2022-09-21T15:56:49.642Z,102097.63
2022-09-21T15:59:20.885Z,102095.44
2022-09-21T16:01:50.693Z,102092.97
2022-09-21T16:04:23.778Z,102086.97
2022-09-21T16:07:05.576Z,102095.16
2022-09-21T16:09:45.532Z,102088.34
2022-09-21T16:12:34.419Z,102092.16
2022-09-21T16:15:07.969Z,102093.25
2022-09-21T16:17:38.678Z,102094.06
2022-09-21T16:20:14.777Z,102091.56
2022-09-21T16:22:54.876Z,102092.59
2022-09-21T16:25:24.128Z,102099.97
2022-09-21T16:28:03.288Z,102105.13
2022-09-21T16:30:46.182Z,102095.75
2022-09-21T16:33:42.284Z,102106.91
2022-09-21T16:36:33.883Z,102100.03
2022-09-21T16:39:01.304Z,102101.66
2022-09-21T16:41:35.546Z,102103.25
2022-09-21T16:44:03.171Z,102102.13
2022-09-21T16:46:31.919Z,102105.69
2022-09-21T16:49:00.670Z,102103.47
2022-09-21T16:51:28.470Z,102108.94
2022-09-21T16:53:58.500Z,102103.44
2022-09-21T16:56:25.399Z,102105.59
2022-09-21T16:58:52.200Z,102098.97
2022-09-21T17:01:20.660Z,102091.56
2022-09-21T17:03:48.005Z,102100.25
2022-09-21T17:06:19.663Z,102098.56
2022-09-21T17:08:48.274Z,102096.84
2022-09-21T17:11:21.706Z,102088.03
2022-09-21T17:13:52.056Z,102095.38
2022-09-21T17:16:20.271Z,102096.38
2022-09-21T17:18:48.600Z,102089.41
2022-09-21T17:21:16.875Z,102098.06
2022-09-21T17:23:43.354Z,102091.41
2022-09-21T17:26:16.632Z,102093.75
2022-09-21T17:28:44.218Z,102087.38
2022-09-21T17:31:19.034Z,102087.31
2022-09-21T17:33:47.860Z,102083.88
2022-09-21T17:36:15.987Z,102083.25
2022-09-21T17:38:43.287Z,102088.72
2022-09-21T17:41:22.010Z,102094.91
2022-09-21T17:44:40.007Z,102090.19
2022-09-21T17:47:14.499Z,102094.09
2022-09-21T17:49:41.132Z,102093.94
2022-09-21T17:52:52.531Z,102092.38
2022-09-21T17:55:20.160Z,102089.53
2022-09-21T17:58:02.273Z,102098.94
2022-09-21T18:00:42.867Z,102097.47
2022-09-21T18:03:22.139Z,102099.28
2022-09-21T18:05:51.244Z,102101.34
2022-09-21T18:08:18.669Z,102100.09
2022-09-21T18:10:54.832Z,102098.88
2022-09-21T18:13:35.756Z,102104.22
2022-09-21T18:16:26.957Z,102099.19
2022-09-21T18:19:14.710Z,102093.66
2022-09-21T18:21:43.798Z,102091.91
2022-09-21T18:24:33.570Z,102101.28
2022-09-21T18:27:00.824Z,102106.63
2022-09-21T18:29:40.867Z,102110.69
2022-09-21T18:32:23.008Z,102102.09
2022-09-21T18:34:51.142Z,102100.81
2022-09-21T18:37:29.822Z,102100.09
2022-09-21T18:40:24.867Z,102096.19
2022-09-21T18:42:59.536Z,102100.16
2022-09-21T18:45:36.773Z,102107.63
2022-09-21T18:48:53.733Z,102099.84
2022-09-21T18:51:45.619Z,102109.53
2022-09-21T18:54:20.276Z,102110.63
2022-09-21T18:56:47.453Z,102111.66
2022-09-21T18:59:15.583Z,102102.91
2022-09-21T19:01:44.256Z,102112.03
2022-09-21T19:04:14.800Z,102114.16
2022-09-21T19:07:01.594Z,102106.38
2022-09-21T19:09:38.141Z,102113.84
2022-09-21T19:12:23.375Z,102114.31
2022-09-21T19:15:07.805Z,102116.06
2022-09-21T19:18:10.956Z,102116.94
2022-09-21T19:20:49.837Z,102108.66
2022-09-21T19:23:31.150Z,102104.19
2022-09-21T19:26:16.199Z,102111.97
2022-09-21T19:28:55.498Z,102109.72
2022-09-21T19:31:22.563Z,102116.09
2022-09-21T19:33:56.378Z,102121.06
2022-09-21T19:36:24.210Z,102128.00
2022-09-21T19:38:51.316Z,102125.78
2022-09-21T19:41:40.894Z,102122.97
2022-09-21T19:44:50.600Z,102124.00
2022-09-21T19:47:30.067Z,102122.34
2022-09-21T19:50:16.257Z,102125.53
2022-09-21T19:52:43.493Z,102124.25
2022-09-21T19:55:41.578Z,102123.06
2022-09-21T19:58:27.716Z,102115.50
2022-09-21T20:00:59.636Z,102120.31
2022-09-21T20:03:35.292Z,102121.63
2022-09-21T20:06:05.940Z,102114.19
2022-09-21T20:08:46.325Z,102117.34
2022-09-21T20:11:21.276Z,102123.25
2022-09-21T20:14:21.312Z,102122.28
2022-09-21T20:16:54.083Z,102121.94
2022-09-21T20:19:46.413Z,102123.72
2022-09-21T20:22:14.901Z,102120.25
2022-09-21T20:24:50.588Z,102116.56
2022-09-21T20:27:37.464Z,102112.44
2022-09-21T20:30:07.943Z,102113.75
2022-09-21T20:32:36.423Z,102116.53
2022-09-21T20:35:03.706Z,102120.97
2022-09-21T20:37:30.236Z,102122.06
2022-09-21T20:39:57.239Z,102120.97
2022-09-21T20:42:25.091Z,102119.81
2022-09-21T20:44:52.507Z,102120.94
2022-09-21T20:47:20.221Z,102118.84
2022-09-21T20:49:48.446Z,102126.50
2022-09-21T20:52:17.305Z,102118.69
2022-09-21T20:54:48.932Z,102123.16
2022-09-21T20:57:17.420Z,102125.50
2022-09-21T20:59:44.921Z,102126.38
2022-09-21T21:02:13.282Z,102123.91
2022-09-21T21:04:40.164Z,102120.53
2022-09-21T21:07:07.200Z,102125.56
2022-09-21T21:09:33.754Z,102123.28
2022-09-21T21:12:00.438Z,102126.88
2022-09-21T21:14:26.894Z,102122.41
2022-09-21T21:16:53.430Z,102119.06
2022-09-21T21:19:20.331Z,102119.31
2022-09-21T21:21:47.270Z,102124.19
2022-09-21T21:24:32.457Z,102123.13
2022-09-21T21:27:03.246Z,102123.00
2022-09-21T21:29:31.886Z,102121.53
2022-09-21T21:31:59.699Z,102125.78
2022-09-21T21:34:27.064Z,102124.34
2022-09-21T21:36:53.652Z,102126.69
2022-09-21T21:39:20.292Z,102120.50
2022-09-21T21:41:47.228Z,102119.91
2022-09-21T21:44:13.742Z,102117.66
2022-09-21T21:46:40.134Z,102119.53
2022-09-21T21:49:06.996Z,102117.22
2022-09-21T21:51:33.689Z,102123.50
2022-09-21T21:54:03.620Z,102120.81
2022-09-21T21:56:30.228Z,102124.72
2022-09-21T21:58:57.303Z,102113.13
2022-09-21T22:01:27.035Z,102127.34
2022-09-21T22:04:01.005Z,102117.34
2022-09-21T22:06:29.583Z,102122.78
2022-09-21T22:08:57.486Z,102124.03
2022-09-21T22:11:25.758Z,102125.91
2022-09-21T22:13:56.442Z,102132.38
2022-09-21T22:16:24.118Z,102124.47
2022-09-21T22:18:52.398Z,102124.97
2022-09-21T22:21:25.422Z,102123.69
2022-09-21T22:23:53.990Z,102116.88
2022-09-21T22:26:21.388Z,102122.31
2022-09-21T22:28:50.659Z,102124.25
2022-09-21T22:31:20.578Z,102121.16
2022-09-21T22:33:48.305Z,102124.25
2022-09-21T22:36:17.829Z,102123.03
2022-09-21T22:38:46.302Z,102126.94
2022-09-21T22:41:17.254Z,102127.78
2022-09-21T22:43:45.155Z,102129.44
2022-09-21T22:46:12.412Z,102128.63
2022-09-21T22:48:38.884Z,102117.47
2022-09-21T22:51:05.949Z,102121.47
2022-09-21T22:53:32.629Z,102120.28
2022-09-21T22:56:10.275Z,102126.06
2022-09-21T22:58:39.899Z,102115.25
2022-09-21T23:01:09.091Z,102116.94
2022-09-21T23:03:35.619Z,102112.81
2022-09-21T23:06:02.544Z,102112.25
2022-09-21T23:08:29.254Z,102111.19
2022-09-21T23:11:04.393Z,102109.72
2022-09-21T23:13:30.938Z,102113.47
2022-09-21T23:16:05.806Z,102118.28
2022-09-21T23:18:33.019Z,102113.91
2022-09-21T23:21:03.948Z,102109.31
2022-09-21T23:23:32.341Z,102108.31
2022-09-21T23:26:06.154Z,102111.66
2022-09-21T23:28:34.320Z,102107.38
2022-09-21T23:31:05.406Z,102101.13
2022-09-21T23:33:37.296Z,102092.78
2022-09-21T23:36:05.067Z,102097.97
2022-09-21T23:38:32.428Z,102098.03
2022-09-21T23:41:12.906Z,102099.47
2022-09-21T23:43:41.215Z,102092.63
2022-09-21T23:46:09.724Z,102093.22
2022-09-21T23:48:36.753Z,102095.97
2022-09-21T23:51:04.438Z,102089.75
2022-09-21T23:53:31.646Z,102087.69
2022-09-21T23:55:58.948Z,102093.31
2022-09-21T23:58:27.126Z,102098.97
